sensor_id;sensor_type;location;lat;lon;timestamp;pressure;altitude;pressure_sealevel;temperature;humidity
25232;BME280;13176;51.140;6.290;2022-09-03T00:02:27;100392.56;;;22.93;37.12
25232;BME280;13176;51.140;6.290;2022-09-03T00:05:07;100407.03;;;23.02;37.22
25232;BME280;13176;51.140;6.290;2022-09-03T00:07:55;100397.78;;;23.07;37.07
25232;BME280;13176;51.140;6.290;2022-09-03T00:10:30;100392.06;;;23.13;37.38
25232;BME280;13176;51.140;6.290;2022-09-03T00:13:01;100379.97;;;22.95;37.53
25232;BME280;13176;51.140;6.290;2022-09-03T00:15:32;100373.47;;;22.87;37.85
25232;BME280;13176;51.140;6.290;2022-09-03T00:18:05;100399.16;;;23.00;37.39
25232;BME280;13176;51.140;6.290;2022-09-03T00:20:39;100374.97;;;22.91;37.10
25232;BME280;13176;51.140;6.290;2022-09-03T00:23:13;100231.84;;;21.94;37.37
25232;BME280;13176;51.140;6.290;2022-09-03T00:25:48;100351.44;;;22.72;37.50
25232;BME280;13176;51.140;6.290;2022-09-03T00:28:19;100393.72;;;22.89;37.26
25232;BME280;13176;51.140;6.290;2022-09-03T00:30:51;100379.56;;;22.76;37.28
25232;BME280;13176;51.140;6.290;2022-09-03T00:33:28;100383.72;;;22.80;37.47
25232;BME280;13176;51.140;6.290;2022-09-03T00:38:28;100384.34;;;22.71;37.78
25232;BME280;13176;51.140;6.290;2022-09-03T00:41:04;100392.94;;;22.62;37.82
25232;BME280;13176;51.140;6.290;2022-09-03T00:46:37;100389.06;;;22.41;38.13
25232;BME280;13176;51.140;6.290;2022-09-03T00:52:04;100392.16;;;22.21;39.15
25232;BME280;13176;51.140;6.290;2022-09-03T01:02:55;100395.38;;;22.26;38.97
25232;BME280;13176;51.140;6.290;2022-09-03T01:08:47;100361.13;;;21.95;40.06
25232;BME280;13176;51.140;6.290;2022-09-03T01:11:30;100390.00;;;22.14;39.56
25232;BME280;13176;51.140;6.290;2022-09-03T01:19:34;100392.44;;;22.04;39.42
25232;BME280;13176;51.140;6.290;2022-09-03T01:22:22;100393.75;;;22.11;39.27
25232;BME280;13176;51.140;6.290;2022-09-03T01:30:19;100388.88;;;22.18;38.54
25232;BME280;13176;51.140;6.290;2022-09-03T01:35:46;100323.25;;;21.80;38.85
25232;BME280;13176;51.140;6.290;2022-09-03T01:41:26;100320.22;;;21.72;38.30
25232;BME280;13176;51.140;6.290;2022-09-03T01:49:53;100381.88;;;22.29;38.42
25232;BME280;13176;51.140;6.290;2022-09-03T01:52:45;100373.81;;;22.04;39.02
25232;BME280;13176;51.140;6.290;2022-09-03T01:55:28;100388.97;;;22.16;39.28
25232;BME280;13176;51.140;6.290;2022-09-03T01:58:06;100370.66;;;22.12;38.62
25232;BME280;13176;51.140;6.290;2022-09-03T02:00:39;100379.09;;;22.18;38.80
25232;BME280;13176;51.140;6.290;2022-09-03T02:03:09;100375.00;;;22.13;38.01
25232;BME280;13176;51.140;6.290;2022-09-03T02:05:37;100353.50;;;22.03;38.42
25232;BME280;13176;51.140;6.290;2022-09-03T02:08:07;100339.00;;;21.83;39.07
25232;BME280;13176;51.140;6.290;2022-09-03T02:10:42;100391.38;;;22.07;39.31
25232;BME280;13176;51.140;6.290;2022-09-03T02:13:20;100372.63;;;21.96;38.76
25232;BME280;13176;51.140;6.290;2022-09-03T02:15:49;100344.41;;;21.67;39.11
25232;BME280;13176;51.140;6.290;2022-09-03T02:18:24;100384.50;;;21.90;39.24
25232;BME280;13176;51.140;6.290;2022-09-03T02:20:53;100378.69;;;21.72;39.80
25232;BME280;13176;51.140;6.290;2022-09-03T02:23:20;100344.50;;;21.52;39.74
25232;BME280;13176;51.140;6.290;2022-09-03T02:25:59;100341.34;;;21.47;39.42
25232;BME280;13176;51.140;6.290;2022-09-03T02:28:30;100370.16;;;21.67;40.16
25232;BME280;13176;51.140;6.290;2022-09-03T02:30:57;100358.19;;;21.60;39.86
25232;BME280;13176;51.140;6.290;2022-09-03T02:33:24;100299.00;;;21.17;39.94
25232;BME280;13176;51.140;6.290;2022-09-03T02:35:52;100377.91;;;21.70;40.01
25232;BME280;13176;51.140;6.290;2022-09-03T02:38:24;100378.47;;;21.75;40.02
25232;BME280;13176;51.140;6.290;2022-09-03T02:40:51;100376.38;;;21.80;39.54
25232;BME280;13176;51.140;6.290;2022-09-03T02:43:26;100320.47;;;21.41;39.82
25232;BME280;13176;51.140;6.290;2022-09-03T02:45:59;100357.06;;;21.64;39.73
25232;BME280;13176;51.140;6.290;2022-09-03T02:48:27;100332.94;;;21.53;38.54
25232;BME280;13176;51.140;6.290;2022-09-03T02:50:53;100349.66;;;21.69;38.26
25232;BME280;13176;51.140;6.290;2022-09-03T02:53:20;100274.22;;;21.17;39.79
25232;BME280;13176;51.140;6.290;2022-09-03T02:55:46;100364.72;;;21.68;39.01
25232;BME280;13176;51.140;6.290;2022-09-03T02:58:13;100336.13;;;21.59;39.07
25232;BME280;13176;51.140;6.290;2022-09-03T03:00:39;100377.47;;;21.89;38.43
25232;BME280;13176;51.140;6.290;2022-09-03T03:03:06;100370.44;;;21.88;38.60
25232;BME280;13176;51.140;6.290;2022-09-03T03:05:44;100334.75;;;21.52;38.78
25232;BME280;13176;51.140;6.290;2022-09-03T03:08:12;100360.00;;;21.86;39.06
25232;BME280;13176;51.140;6.290;2022-09-03T03:10:41;100359.97;;;21.73;38.72
25232;BME280;13176;51.140;6.290;2022-09-03T03:13:11;100379.13;;;21.78;38.73
25232;BME280;13176;51.140;6.290;2022-09-03T03:15:38;100282.31;;;21.15;39.19
25232;BME280;13176;51.140;6.290;2022-09-03T03:18:04;100250.19;;;21.06;39.41
25232;BME280;13176;51.140;6.290;2022-09-03T03:20:33;100322.72;;;21.61;38.88
25232;BME280;13176;51.140;6.290;2022-09-03T03:23:03;100265.59;;;21.27;39.04
25232;BME280;13176;51.140;6.290;2022-09-03T03:25:35;100346.22;;;21.81;38.86
25232;BME280;13176;51.140;6.290;2022-09-03T03:28:03;100316.56;;;21.60;38.78
25232;BME280;13176;51.140;6.290;2022-09-03T03:30:30;100268.16;;;21.29;39.17
25232;BME280;13176;51.140;6.290;2022-09-03T03:32:57;100350.41;;;21.71;38.81
25232;BME280;13176;51.140;6.290;2022-09-03T03:35:24;100349.38;;;21.86;38.40
25232;BME280;13176;51.140;6.290;2022-09-03T03:37:51;100356.06;;;22.05;38.06
25232;BME280;13176;51.140;6.290;2022-09-03T03:40:17;100297.28;;;21.71;38.24
25232;BME280;13176;51.140;6.290;2022-09-03T03:42:45;100344.38;;;22.07;37.95
25232;BME280;13176;51.140;6.290;2022-09-03T03:45:11;100321.63;;;22.03;37.79
25232;BME280;13176;51.140;6.290;2022-09-03T03:47:38;100344.19;;;22.10;37.97
25232;BME280;13176;51.140;6.290;2022-09-03T03:50:05;100325.63;;;21.96;38.25
25232;BME280;13176;51.140;6.290;2022-09-03T03:52:32;100344.19;;;22.10;38.10
25232;BME280;13176;51.140;6.290;2022-09-03T03:54:58;100280.47;;;21.70;38.15
25232;BME280;13176;51.140;6.290;2022-09-03T03:57:25;100335.50;;;21.94;39.02
25232;BME280;13176;51.140;6.290;2022-09-03T03:59:54;100275.91;;;21.72;38.88
25232;BME280;13176;51.140;6.290;2022-09-03T04:02:21;100268.03;;;21.71;38.17
25232;BME280;13176;51.140;6.290;2022-09-03T04:04:47;100350.38;;;22.23;37.72
25232;BME280;13176;51.140;6.290;2022-09-03T04:07:14;100342.94;;;22.28;37.86
25232;BME280;13176;51.140;6.290;2022-09-03T04:09:40;100335.72;;;22.30;37.48
25232;BME280;13176;51.140;6.290;2022-09-03T04:12:07;100353.34;;;22.19;38.01
25232;BME280;13176;51.140;6.290;2022-09-03T04:14:34;100345.88;;;22.11;38.56
25232;BME280;13176;51.140;6.290;2022-09-03T04:17:01;100358.56;;;22.20;38.16
25232;BME280;13176;51.140;6.290;2022-09-03T04:19:28;100348.53;;;22.11;38.46
25232;BME280;13176;51.140;6.290;2022-09-03T04:21:55;100327.13;;;22.00;38.53
25232;BME280;13176;51.140;6.290;2022-09-03T04:24:22;100341.53;;;22.10;38.43
25232;BME280;13176;51.140;6.290;2022-09-03T04:26:49;100264.72;;;21.67;38.32
25232;BME280;13176;51.140;6.290;2022-09-03T04:29:15;100325.91;;;22.18;37.88
25232;BME280;13176;51.140;6.290;2022-09-03T04:31:43;100340.69;;;22.22;38.08
25232;BME280;13176;51.140;6.290;2022-09-03T04:34:31;100298.44;;;22.05;37.79
25232;BME280;13176;51.140;6.290;2022-09-03T04:36:57;100328.63;;;22.04;38.45
25232;BME280;13176;51.140;6.290;2022-09-03T04:39:24;100274.13;;;21.73;38.57
25232;BME280;13176;51.140;6.290;2022-09-03T04:41:51;100346.84;;;22.10;38.69
25232;BME280;13176;51.140;6.290;2022-09-03T04:44:18;100333.75;;;22.07;38.46
25232;BME280;13176;51.140;6.290;2022-09-03T04:46:44;100344.16;;;21.98;38.98
25232;BME280;13176;51.140;6.290;2022-09-03T04:49:13;100337.56;;;22.03;38.92
25232;BME280;13176;51.140;6.290;2022-09-03T04:51:41;100344.97;;;21.98;39.37
25232;BME280;13176;51.140;6.290;2022-09-03T04:54:09;100330.25;;;21.81;39.96
25232;BME280;13176;51.140;6.290;2022-09-03T04:56:38;100353.56;;;21.89;40.32
25232;BME280;13176;51.140;6.290;2022-09-03T04:59:07;100337.28;;;21.82;39.69
25232;BME280;13176;51.140;6.290;2022-09-03T05:01:35;100354.09;;;21.94;39.40
25232;BME280;13176;51.140;6.290;2022-09-03T05:04:03;100351.38;;;21.96;40.03
25232;BME280;13176;51.140;6.290;2022-09-03T05:06:31;100339.81;;;21.83;39.74
25232;BME280;13176;51.140;6.290;2022-09-03T05:08:59;100256.81;;;21.39;39.22
25232;BME280;13176;51.140;6.290;2022-09-03T05:11:27;100346.88;;;21.96;39.14
25232;BME280;13176;51.140;6.290;2022-09-03T05:13:56;100355.00;;;22.07;39.25
25232;BME280;13176;51.140;6.290;2022-09-03T05:16:25;100273.56;;;21.54;39.71
25232;BME280;13176;51.140;6.290;2022-09-03T05:18:55;100277.16;;;21.53;41.18
25232;BME280;13176;51.140;6.290;2022-09-03T05:21:22;100372.47;;;22.11;39.21
25232;BME280;13176;51.140;6.290;2022-09-03T05:23:50;100250.09;;;21.48;39.01
25232;BME280;13176;51.140;6.290;2022-09-03T05:26:25;100297.72;;;21.77;39.82
25232;BME280;13176;51.140;6.290;2022-09-03T05:28:55;100354.63;;;22.13;39.11
25232;BME280;13176;51.140;6.290;2022-09-03T05:31:24;100366.13;;;22.26;39.14
25232;BME280;13176;51.140;6.290;2022-09-03T05:33:54;100372.09;;;22.30;38.35
25232;BME280;13176;51.140;6.290;2022-09-03T05:36:25;100369.53;;;22.28;39.67
25232;BME280;13176;51.140;6.290;2022-09-03T05:38:51;100301.78;;;21.83;39.65
25232;BME280;13176;51.140;6.290;2022-09-03T05:41:25;100297.22;;;21.85;39.89
25232;BME280;13176;51.140;6.290;2022-09-03T05:43:53;100278.31;;;21.89;38.53
25232;BME280;13176;51.140;6.290;2022-09-03T05:46:26;100273.97;;;22.00;37.73
25232;BME280;13176;51.140;6.290;2022-09-03T05:49:00;100355.00;;;22.34;39.00
25232;BME280;13176;51.140;6.290;2022-09-03T05:51:28;100341.88;;;22.18;38.74
25232;BME280;13176;51.140;6.290;2022-09-03T05:53:56;100358.00;;;22.42;37.91
25232;BME280;13176;51.140;6.290;2022-09-03T05:56:25;100372.16;;;22.42;38.47
25232;BME280;13176;51.140;6.290;2022-09-03T05:58:53;100375.16;;;22.50;38.24
25232;BME280;13176;51.140;6.290;2022-09-03T06:01:23;100371.53;;;22.51;38.64
25232;BME280;13176;51.140;6.290;2022-09-03T06:03:58;100351.31;;;22.49;37.79
25232;BME280;13176;51.140;6.290;2022-09-03T06:06:27;100354.09;;;22.47;38.69
25232;BME280;13176;51.140;6.290;2022-09-03T06:08:55;100322.31;;;22.32;37.41
25232;BME280;13176;51.140;6.290;2022-09-03T06:11:25;100299.94;;;22.09;37.86
25232;BME280;13176;51.140;6.290;2022-09-03T06:13:58;100370.59;;;22.52;37.53
25232;BME280;13176;51.140;6.290;2022-09-03T06:16:28;100310.06;;;22.29;37.83
25232;BME280;13176;51.140;6.290;2022-09-03T06:19:00;100239.06;;;21.80;37.64
25232;BME280;13176;51.140;6.290;2022-09-03T06:21:28;100356.44;;;22.64;37.09
25232;BME280;13176;51.140;6.290;2022-09-03T06:23:56;100272.19;;;22.13;37.17
25232;BME280;13176;51.140;6.290;2022-09-03T06:26:25;100346.94;;;22.60;36.95
25232;BME280;13176;51.140;6.290;2022-09-03T06:28:54;100363.78;;;22.73;36.82
25232;BME280;13176;51.140;6.290;2022-09-03T06:31:22;100369.03;;;22.75;37.34
25232;BME280;13176;51.140;6.290;2022-09-03T06:33:48;100366.47;;;22.73;37.74
25232;BME280;13176;51.140;6.290;2022-09-03T06:36:17;100332.41;;;22.53;37.44
25232;BME280;13176;51.140;6.290;2022-09-03T06:38:44;100371.56;;;22.76;37.41
25232;BME280;13176;51.140;6.290;2022-09-03T06:41:17;100373.69;;;22.84;36.60
25232;BME280;13176;51.140;6.290;2022-09-03T06:43:47;100364.34;;;22.78;37.27
25232;BME280;13176;51.140;6.290;2022-09-03T06:46:16;100372.31;;;22.78;37.11
25232;BME280;13176;51.140;6.290;2022-09-03T06:48:43;100298.44;;;22.44;36.99
25232;BME280;13176;51.140;6.290;2022-09-03T06:51:31;100300.69;;;22.50;36.87
25232;BME280;13176;51.140;6.290;2022-09-03T06:54:06;100373.19;;;22.91;36.75
25232;BME280;13176;51.140;6.290;2022-09-03T06:56:34;100175.69;;;21.74;36.81
25232;BME280;13176;51.140;6.290;2022-09-03T06:59:07;100374.97;;;22.91;36.42
25232;BME280;13176;51.140;6.290;2022-09-03T07:01:38;100306.22;;;22.60;36.78
25232;BME280;13176;51.140;6.290;2022-09-03T07:04:10;100366.66;;;22.95;36.67
25232;BME280;13176;51.140;6.290;2022-09-03T07:06:39;100379.25;;;22.93;36.65
25232;BME280;13176;51.140;6.290;2022-09-03T07:09:08;100351.56;;;22.83;36.98
25232;BME280;13176;51.140;6.290;2022-09-03T07:11:35;100363.03;;;22.96;37.18
25232;BME280;13176;51.140;6.290;2022-09-03T07:14:03;100375.44;;;23.10;36.81
25232;BME280;13176;51.140;6.290;2022-09-03T07:16:33;100387.47;;;23.15;36.82
25232;BME280;13176;51.140;6.290;2022-09-03T07:19:01;100365.41;;;23.01;36.71
25232;BME280;13176;51.140;6.290;2022-09-03T07:21:30;100337.28;;;22.84;36.41
25232;BME280;13176;51.140;6.290;2022-09-03T07:23:59;100390.13;;;23.15;36.67
25232;BME280;13176;51.140;6.290;2022-09-03T07:26:30;100381.81;;;23.19;36.53
25232;BME280;13176;51.140;6.290;2022-09-03T07:28:58;100353.66;;;23.03;37.12
25232;BME280;13176;51.140;6.290;2022-09-03T07:31:28;100348.13;;;23.06;37.08
25232;BME280;13176;51.140;6.290;2022-09-03T07:33:58;100386.06;;;23.34;36.76
25232;BME280;13176;51.140;6.290;2022-09-03T07:36:27;100366.56;;;23.34;36.62
25232;BME280;13176;51.140;6.290;2022-09-03T07:38:58;100349.13;;;23.30;36.50
25232;BME280;13176;51.140;6.290;2022-09-03T07:41:25;100373.34;;;23.50;36.22
25232;BME280;13176;51.140;6.290;2022-09-03T07:43:54;100342.38;;;23.37;36.28
25232;BME280;13176;51.140;6.290;2022-09-03T07:46:24;100378.56;;;23.52;36.14
25232;BME280;13176;51.140;6.290;2022-09-03T07:49:00;100380.06;;;23.56;36.69
25232;BME280;13176;51.140;6.290;2022-09-03T07:51:31;100379.31;;;23.54;36.21
25232;BME280;13176;51.140;6.290;2022-09-03T07:54:00;100385.78;;;23.62;36.44
25232;BME280;13176;51.140;6.290;2022-09-03T07:56:28;100361.19;;;23.59;36.38
25232;BME280;13176;51.140;6.290;2022-09-03T07:58:57;100345.50;;;23.54;36.69
25232;BME280;13176;51.140;6.290;2022-09-03T08:01:26;100380.00;;;23.81;36.61
25232;BME280;13176;51.140;6.290;2022-09-03T08:03:54;100379.59;;;23.74;36.35
25232;BME280;13176;51.140;6.290;2022-09-03T08:06:22;100287.59;;;23.33;36.67
25232;BME280;13176;51.140;6.290;2022-09-03T08:08:58;100372.19;;;23.90;36.64
25232;BME280;13176;51.140;6.290;2022-09-03T08:11:31;100277.06;;;23.31;36.11
25232;BME280;13176;51.140;6.290;2022-09-03T08:14:00;100362.69;;;23.86;35.65
25232;BME280;13176;51.140;6.290;2022-09-03T08:16:30;100364.84;;;23.94;36.35
25232;BME280;13176;51.140;6.290;2022-09-03T08:18:57;100398.63;;;24.17;36.38
25232;BME280;13176;51.140;6.290;2022-09-03T08:21:25;100402.66;;;24.22;36.19
25232;BME280;13176;51.140;6.290;2022-09-03T08:23:54;100232.88;;;23.29;36.80
25232;BME280;13176;51.140;6.290;2022-09-03T08:26:30;100302.25;;;23.51;35.99
25232;BME280;13176;51.140;6.290;2022-09-03T08:28:57;100407.09;;;24.34;36.01
25232;BME280;13176;51.140;6.290;2022-09-03T08:31:24;100409.66;;;24.35;36.05
25232;BME280;13176;51.140;6.290;2022-09-03T08:33:53;100361.53;;;24.14;36.53
25232;BME280;13176;51.140;6.290;2022-09-03T08:36:22;100314.91;;;23.96;36.14
25232;BME280;13176;51.140;6.290;2022-09-03T08:38:51;100361.13;;;24.30;36.30
25232;BME280;13176;51.140;6.290;2022-09-03T08:49:58;100389.03;;;25.06;35.84
25232;BME280;13176;51.140;6.290;2022-09-03T08:52:44;100388.94;;;25.19;35.31
25232;BME280;13176;51.140;6.290;2022-09-03T08:55:33;100395.72;;;25.34;35.69
25232;BME280;13176;51.140;6.290;2022-09-03T08:58:05;100388.34;;;25.37;34.96
25232;BME280;13176;51.140;6.290;2022-09-03T09:00:47;100407.75;;;25.50;35.02
25232;BME280;13176;51.140;6.290;2022-09-03T09:03:37;100397.06;;;25.61;35.25
25232;BME280;13176;51.140;6.290;2022-09-03T09:06:19;100394.63;;;25.58;34.71
25232;BME280;13176;51.140;6.290;2022-09-03T09:12:07;100390.34;;;25.77;34.52
25232;BME280;13176;51.140;6.290;2022-09-03T09:20:35;100360.09;;;25.88;34.46
25232;BME280;13176;51.140;6.290;2022-09-03T09:23:14;100370.28;;;25.94;34.47
25232;BME280;13176;51.140;6.290;2022-09-03T09:25:47;100405.22;;;26.24;34.74
25232;BME280;13176;51.140;6.290;2022-09-03T09:28:18;100402.50;;;26.35;34.62
25232;BME280;13176;51.140;6.290;2022-09-03T13:14:07;100339.78;;;32.20;30.84
25232;BME280;13176;51.140;6.290;2022-09-03T13:19:21;100360.06;;;32.24;31.27
25232;BME280;13176;51.140;6.290;2022-09-03T13:21:58;100356.03;;;32.36;30.68
25232;BME280;13176;51.140;6.290;2022-09-03T13:30:01;100356.06;;;32.68;30.68
25232;BME280;13176;51.140;6.290;2022-09-03T13:35:25;100319.53;;;32.40;30.29
25232;BME280;13176;51.140;6.290;2022-09-03T13:38:20;100353.69;;;32.73;30.24
25232;BME280;13176;51.140;6.290;2022-09-03T13:41:12;100353.50;;;32.75;30.21
25232;BME280;13176;51.140;6.290;2022-09-03T13:44:09;100278.28;;;32.54;29.79
25232;BME280;13176;51.140;6.290;2022-09-03T13:46:54;100314.41;;;33.01;29.43
25232;BME280;13176;51.140;6.290;2022-09-03T13:52:26;100295.00;;;32.89;29.41
25232;BME280;13176;51.140;6.290;2022-09-03T13:55:15;100278.25;;;32.86;29.47
25232;BME280;13176;51.140;6.290;2022-09-03T14:03:37;100347.34;;;33.04;29.25
25232;BME280;13176;51.140;6.290;2022-09-03T14:06:39;100294.31;;;32.95;29.32
25232;BME280;13176;51.140;6.290;2022-09-03T14:14:59;100296.44;;;33.16;28.84
25232;BME280;13176;51.140;6.290;2022-09-03T14:17:30;100350.19;;;33.35;28.38
25232;BME280;13176;51.140;6.290;2022-09-03T14:20:28;100341.63;;;33.54;28.82
25232;BME280;13176;51.140;6.290;2022-09-03T14:25:59;100346.69;;;33.02;29.13
25232;BME280;13176;51.140;6.290;2022-09-03T14:28:45;100336.09;;;32.69;28.90
25232;BME280;13176;51.140;6.290;2022-09-03T14:34:25;100351.28;;;32.30;30.58
25232;BME280;13176;51.140;6.290;2022-09-03T14:39:58;100351.28;;;32.46;30.54
25232;BME280;13176;51.140;6.290;2022-09-03T14:42:42;100350.59;;;32.60;30.21
25232;BME280;13176;51.140;6.290;2022-09-03T14:45:22;100342.53;;;32.76;29.74
25232;BME280;13176;51.140;6.290;2022-09-03T14:48:06;100348.56;;;32.86;29.59
25232;BME280;13176;51.140;6.290;2022-09-03T14:53:46;100340.84;;;33.45;28.87
25232;BME280;13176;51.140;6.290;2022-09-03T15:05:42;100358.72;;;32.92;28.83
25232;BME280;13176;51.140;6.290;2022-09-03T15:11:24;100347.41;;;32.57;30.88
25232;BME280;13176;51.140;6.290;2022-09-03T15:14:03;100342.81;;;32.41;30.66
25232;BME280;13176;51.140;6.290;2022-09-03T15:16:50;100347.88;;;32.44;30.18
25232;BME280;13176;51.140;6.290;2022-09-03T15:22:04;100348.22;;;32.49;30.37
25232;BME280;13176;51.140;6.290;2022-09-03T15:30:08;100349.94;;;32.58;29.47
25232;BME280;13176;51.140;6.290;2022-09-03T15:32:51;100305.66;;;32.51;29.74
25232;BME280;13176;51.140;6.290;2022-09-03T15:35:31;100347.75;;;32.78;29.73
25232;BME280;13176;51.140;6.290;2022-09-03T15:38:06;100320.19;;;32.34;29.78
25232;BME280;13176;51.140;6.290;2022-09-03T15:40:48;100267.66;;;32.21;30.55
25232;BME280;13176;51.140;6.290;2022-09-03T15:51:12;100251.53;;;31.71;30.35
25232;BME280;13176;51.140;6.290;2022-09-03T15:53:50;100345.06;;;32.78;29.56
25232;BME280;13176;51.140;6.290;2022-09-03T15:56:31;100325.25;;;32.85;29.00
25232;BME280;13176;51.140;6.290;2022-09-03T15:59:16;100352.25;;;33.25;28.89
25232;BME280;13176;51.140;6.290;2022-09-03T16:01:51;100345.34;;;33.22;29.28
25232;BME280;13176;51.140;6.290;2022-09-03T16:07:30;100312.09;;;32.66;29.69
25232;BME280;13176;51.140;6.290;2022-09-03T16:10:12;100245.81;;;32.54;29.31
25232;BME280;13176;51.140;6.290;2022-09-03T16:13:04;100352.88;;;33.43;29.40
25232;BME280;13176;51.140;6.290;2022-09-03T16:15:38;100351.16;;;33.50;28.91
25232;BME280;13176;51.140;6.290;2022-09-03T16:18:14;100264.34;;;32.97;29.01
25232;BME280;13176;51.140;6.290;2022-09-03T16:23:31;100354.81;;;33.18;28.94
25232;BME280;13176;51.140;6.290;2022-09-03T16:26:10;100251.09;;;32.24;29.58
25232;BME280;13176;51.140;6.290;2022-09-03T16:28:55;100334.88;;;32.40;30.01
25232;BME280;13176;51.140;6.290;2022-09-03T16:37:37;100342.38;;;31.88;31.23
25232;BME280;13176;51.140;6.290;2022-09-03T16:43:24;100302.50;;;31.33;31.62
25232;BME280;13176;51.140;6.290;2022-09-03T16:46:24;100365.25;;;31.68;31.68
25232;BME280;13176;51.140;6.290;2022-09-03T16:52:11;100367.66;;;31.79;31.76
25232;BME280;13176;51.140;6.290;2022-09-03T17:01:04;100368.34;;;31.81;31.90
25232;BME280;13176;51.140;6.290;2022-09-03T17:21:36;100387.47;;;31.54;33.39
25232;BME280;13176;51.140;6.290;2022-09-03T17:24:51;100384.34;;;31.42;33.48
25232;BME280;13176;51.140;6.290;2022-09-03T17:28:39;100367.09;;;31.35;33.98
25232;BME280;13176;51.140;6.290;2022-09-03T17:31:48;100354.00;;;31.14;33.90
25232;BME280;13176;51.140;6.290;2022-09-03T17:34:43;100389.75;;;31.42;34.00
25232;BME280;13176;51.140;6.290;2022-09-03T17:59:08;100423.06;;;30.64;36.45
25232;BME280;13176;51.140;6.290;2022-09-03T18:05:17;100366.69;;;29.92;37.24
25232;BME280;13176;51.140;6.290;2022-09-03T18:08:22;100429.41;;;30.29;37.34
25232;BME280;13176;51.140;6.290;2022-09-03T18:13:49;100440.94;;;30.21;37.71
25232;BME280;13176;51.140;6.290;2022-09-03T18:16:26;100441.91;;;30.03;37.96
25232;BME280;13176;51.140;6.290;2022-09-03T18:19:27;100425.16;;;29.45;39.15
25232;BME280;13176;51.140;6.290;2022-09-03T18:21:57;100421.25;;;29.57;38.59
25232;BME280;13176;51.140;6.290;2022-09-03T18:24:52;100438.00;;;29.51;39.13
25232;BME280;13176;51.140;6.290;2022-09-03T18:27:45;100449.06;;;29.48;39.39
25232;BME280;13176;51.140;6.290;2022-09-03T18:30:33;100436.28;;;29.50;39.71
25232;BME280;13176;51.140;6.290;2022-09-03T18:33:23;100438.31;;;29.48;39.77
25232;BME280;13176;51.140;6.290;2022-09-03T18:36:09;100439.16;;;29.39;40.13
25232;BME280;13176;51.140;6.290;2022-09-03T18:39:11;100455.47;;;29.28;39.72
25232;BME280;13176;51.140;6.290;2022-09-03T18:42:08;100465.22;;;29.48;39.96
25232;BME280;13176;51.140;6.290;2022-09-03T18:51:23;100473.44;;;29.18;40.82
25232;BME280;13176;51.140;6.290;2022-09-03T19:01:08;100474.88;;;28.66;42.24
25232;BME280;13176;51.140;6.290;2022-09-03T19:04:57;100492.41;;;28.70;42.25
25232;BME280;13176;51.140;6.290;2022-09-03T19:07:41;100465.84;;;28.67;42.01
25232;BME280;13176;51.140;6.290;2022-09-03T19:10:52;100493.88;;;28.93;42.25
25232;BME280;13176;51.140;6.290;2022-09-03T19:13:39;100467.81;;;29.03;40.92
25232;BME280;13176;51.140;6.290;2022-09-03T19:19:29;100515.38;;;29.12;40.87
25232;BME280;13176;51.140;6.290;2022-09-03T19:22:36;100519.03;;;28.92;41.38
25232;BME280;13176;51.140;6.290;2022-09-03T19:25:23;100518.75;;;28.76;41.90
25232;BME280;13176;51.140;6.290;2022-09-03T19:28:39;100510.72;;;28.85;41.37
25232;BME280;13176;51.140;6.290;2022-09-03T19:31:42;100507.16;;;28.85;41.79
25232;BME280;13176;51.140;6.290;2022-09-03T19:37:33;100482.22;;;28.64;41.43
25232;BME280;13176;51.140;6.290;2022-09-03T19:40:36;100533.72;;;28.69;42.07
25232;BME280;13176;51.140;6.290;2022-09-03T19:43:36;100509.66;;;28.58;42.28
25232;BME280;13176;51.140;6.290;2022-09-03T19:49:35;100517.28;;;28.53;42.71
25232;BME280;13176;51.140;6.290;2022-09-03T19:52:55;100537.50;;;28.57;42.78
25232;BME280;13176;51.140;6.290;2022-09-03T19:55:36;100523.78;;;28.50;42.17
25232;BME280;13176;51.140;6.290;2022-09-03T19:58:23;100547.28;;;28.58;42.73
25232;BME280;13176;51.140;6.290;2022-09-03T20:01:12;100527.16;;;28.43;42.09
25232;BME280;13176;51.140;6.290;2022-09-03T20:03:59;100554.88;;;28.53;43.01
25232;BME280;13176;51.140;6.290;2022-09-03T20:06:47;100522.63;;;28.43;42.12
25232;BME280;13176;51.140;6.290;2022-09-03T20:09:38;100563.75;;;28.44;43.16
25232;BME280;13176;51.140;6.290;2022-09-03T20:12:30;100564.44;;;28.27;43.55
25232;BME280;13176;51.140;6.290;2022-09-03T20:15:02;100559.53;;;28.11;42.97
25232;BME280;13176;51.140;6.290;2022-09-03T20:26:07;100574.72;;;27.92;44.54
25232;BME280;13176;51.140;6.290;2022-09-03T20:28:49;100568.75;;;27.88;44.34
25232;BME280;13176;51.140;6.290;2022-09-03T20:31:24;100576.41;;;27.93;44.49
25232;BME280;13176;51.140;6.290;2022-09-03T20:34:11;100587.88;;;27.75;44.80
25232;BME280;13176;51.140;6.290;2022-09-03T20:42:39;100568.53;;;27.19;46.08
25232;BME280;13176;51.140;6.290;2022-09-03T20:45:22;100582.41;;;27.24;46.09
25232;BME280;13176;51.140;6.290;2022-09-03T20:50:43;100585.03;;;27.56;45.17
25232;BME280;13176;51.140;6.290;2022-09-03T20:53:39;100590.75;;;27.42;46.48
25232;BME280;13176;51.140;6.290;2022-09-03T20:59:02;100600.38;;;27.33;46.33
25232;BME280;13176;51.140;6.290;2022-09-03T21:01:52;100538.22;;;26.76;46.87
25232;BME280;13176;51.140;6.290;2022-09-03T21:07:28;100541.38;;;26.28;48.25
25232;BME280;13176;51.140;6.290;2022-09-03T21:10:31;100512.06;;;26.05;48.10
25232;BME280;13176;51.140;6.290;2022-09-03T21:18:25;100618.50;;;26.45;48.72
25232;BME280;13176;51.140;6.290;2022-09-03T21:24:02;100475.53;;;25.27;49.71
25232;BME280;13176;51.140;6.290;2022-09-03T21:26:33;100521.50;;;25.54;49.69
25232;BME280;13176;51.140;6.290;2022-09-03T21:29:16;100568.94;;;25.74;49.90
25232;BME280;13176;51.140;6.290;2022-09-03T21:31:48;100609.59;;;25.90;50.36